createdAt,value
2024-01-22T00:01:04.685Z,97327.72
2024-01-22T00:03:33.005Z,97327.63
2024-01-22T00:06:01.531Z,97327.53
2024-01-22T00:08:29.754Z,97324.84
2024-01-22T00:10:57.990Z,97320.50
2024-01-22T00:13:26.186Z,97323.25
2024-01-22T00:15:54.526Z,97312.31
2024-01-22T00:18:24.216Z,97306.88
2024-01-22T00:20:52.579Z,97299.47
2024-01-22T00:23:20.765Z,97300.63
2024-01-22T00:25:49.146Z,97307.91
2024-01-22T00:28:17.278Z,97301.31
2024-01-22T00:30:45.479Z,97304.06
2024-01-22T00:33:13.755Z,97301.50
2024-01-22T00:35:43.616Z,97308.25
2024-01-22T00:38:12.930Z,97312.09
2024-01-22T00:40:41.131Z,97310.69
2024-01-22T00:43:09.353Z,97310.44
2024-01-22T00:45:40.214Z,97311.53
2024-01-22T00:48:09.645Z,97309.41
2024-01-22T00:50:37.958Z,97312.78
2024-01-22T00:53:07.654Z,97308.59
2024-01-22T00:55:35.806Z,97312.78
2024-01-22T00:58:04.066Z,97316.41
2024-01-22T01:00:32.259Z,97312.31
2024-01-22T01:03:00.561Z,97305.28
2024-01-22T01:05:28.842Z,97297.03
2024-01-22T01:07:57.134Z,97294.00
2024-01-22T01:10:26.850Z,97288.56
2024-01-22T01:12:55.016Z,97294.53
2024-01-22T01:15:24.496Z,97297.91
2024-01-22T01:17:52.989Z,97305.19
2024-01-22T01:20:21.211Z,97307.13
2024-01-22T01:22:49.376Z,97294.06
2024-01-22T01:25:17.601Z,97303.25
2024-01-22T01:27:47.310Z,97304.50
2024-01-22T01:30:16.277Z,97296.56
2024-01-22T01:32:44.828Z,97305.13
2024-01-22T01:35:13.489Z,97309.66
2024-01-22T01:37:41.732Z,97308.41
2024-01-22T01:40:11.359Z,97313.56
2024-01-22T01:42:43.613Z,97311.31
2024-01-22T01:45:16.204Z,97311.03
2024-01-22T01:47:49.126Z,97314.25
2024-01-22T01:50:18.621Z,97316.31
2024-01-22T01:52:47.836Z,97308.22
2024-01-22T01:55:16.570Z,97313.09
2024-01-22T01:57:48.340Z,97310.47
2024-01-22T02:00:21.537Z,97303.25
2024-01-22T02:02:50.154Z,97298.44
2024-01-22T02:05:19.077Z,97302.81
2024-01-22T02:07:48.472Z,97292.50
2024-01-22T02:10:16.836Z,97295.06
2024-01-22T02:12:45.088Z,97286.19
2024-01-22T02:15:14.420Z,97295.69
2024-01-22T02:17:44.864Z,97292.31
2024-01-22T02:20:14.549Z,97282.00
2024-01-22T02:22:42.726Z,97287.78
2024-01-22T02:25:14.056Z,97289.56
2024-01-22T02:27:42.182Z,97290.72
2024-01-22T02:30:11.515Z,97293.47
2024-01-22T02:32:39.919Z,97289.47
2024-01-22T02:35:09.031Z,97288.25
2024-01-22T02:37:37.369Z,97286.72
2024-01-22T02:40:06.460Z,97290.09
2024-01-22T02:42:36.229Z,97291.69
2024-01-22T02:45:06.066Z,97286.88
2024-01-22T02:47:34.387Z,97298.00
2024-01-22T02:50:02.986Z,97292.66
2024-01-22T02:52:31.164Z,97301.38
2024-01-22T02:54:59.325Z,97293.00
2024-01-22T02:57:27.546Z,97287.84
2024-01-22T02:59:57.203Z,97295.75
2024-01-22T03:02:25.441Z,97289.81
2024-01-22T03:04:53.734Z,97290.78
2024-01-22T03:07:21.925Z,97296.91
2024-01-22T03:09:50.099Z,97299.47
2024-01-22T03:12:18.371Z,97295.94
2024-01-22T03:14:46.721Z,97280.19
2024-01-22T03:17:16.777Z,97277.88
2024-01-22T03:19:45.096Z,97263.09
2024-01-22T03:22:13.482Z,97254.59
2024-01-22T03:24:45.761Z,97268.22
2024-01-22T03:27:14.188Z,97262.94
2024-01-22T03:29:42.622Z,97261.84
2024-01-22T03:32:10.959Z,97274.41
2024-01-22T03:34:40.706Z,97273.78
2024-01-22T03:37:08.849Z,97272.16
2024-01-22T03:39:37.016Z,97273.44
2024-01-22T03:42:05.584Z,97268.59
2024-01-22T03:44:34.025Z,97271.28
2024-01-22T03:47:02.372Z,97258.38
2024-01-22T03:49:30.742Z,97244.53
2024-01-22T03:52:00.441Z,97252.59
2024-01-22T03:54:28.637Z,97251.78
2024-01-22T03:56:56.834Z,97258.38
2024-01-22T03:59:25.413Z,97256.25
2024-01-22T04:01:57.524Z,97259.97
2024-01-22T04:04:25.688Z,97254.69
2024-01-22T04:06:54.206Z,97255.03
2024-01-22T04:09:24.127Z,97255.38
2024-01-22T04:11:52.509Z,97254.91
2024-01-22T04:14:20.771Z,97254.78
2024-01-22T04:16:49.007Z,97248.84
2024-01-22T04:19:17.216Z,97243.69
2024-01-22T04:21:49.123Z,97236.41
2024-01-22T04:24:17.338Z,97238.66
2024-01-22T04:26:47.037Z,97240.25
2024-01-22T04:29:15.260Z,97245.06
2024-01-22T04:31:43.497Z,97237.97
2024-01-22T04:34:11.720Z,97242.50
2024-01-22T04:36:40.048Z,97233.00
2024-01-22T04:39:08.513Z,97214.97
2024-01-22T04:41:36.823Z,97214.50
2024-01-22T04:44:06.800Z,97228.03
2024-01-22T04:46:34.951Z,97216.41
2024-01-22T04:49:03.259Z,97211.44
2024-01-22T04:51:31.568Z,97212.22
2024-01-22T04:53:59.830Z,97210.63
2024-01-22T04:56:28.036Z,97217.38
2024-01-22T04:58:56.162Z,97231.34
2024-01-22T05:01:25.778Z,97222.13
2024-01-22T05:03:54.197Z,97212.13
2024-01-22T05:06:22.552Z,97198.22
2024-01-22T05:08:50.891Z,97193.59
2024-01-22T05:11:19.105Z,97192.28
2024-01-22T05:13:51.350Z,97202.25
2024-01-22T05:16:20.127Z,97201.09
2024-01-22T05:18:51.159Z,97198.97
2024-01-22T05:21:19.689Z,97181.91
2024-01-22T05:23:48.086Z,97181.28
2024-01-22T05:26:16.364Z,97194.09
2024-01-22T05:28:44.643Z,97197.75
2024-01-22T05:31:12.901Z,97199.00
2024-01-22T05:33:41.340Z,97193.97
2024-01-22T05:36:11.559Z,97173.88
2024-01-22T05:38:42.966Z,97172.38
2024-01-22T05:41:11.168Z,97173.44
2024-01-22T05:43:39.415Z,97184.75
2024-01-22T05:46:07.601Z,97183.13
2024-01-22T05:48:36.710Z,97183.94
2024-01-22T05:51:05.392Z,97183.50
2024-01-22T05:53:36.079Z,97187.75
2024-01-22T05:56:04.261Z,97193.78
2024-01-22T05:58:32.495Z,97196.19
2024-01-22T06:01:00.801Z,97188.03
2024-01-22T06:03:29.164Z,97179.94
2024-01-22T06:05:57.481Z,97175.22
2024-01-22T06:08:25.861Z,97179.22
2024-01-22T06:10:55.583Z,97180.47
2024-01-22T06:13:23.764Z,97172.38
2024-01-22T06:15:51.898Z,97171.75
2024-01-22T06:18:21.407Z,97177.00
2024-01-22T06:20:49.795Z,97166.88
2024-01-22T06:23:18.098Z,97159.41
2024-01-22T06:25:46.360Z,97156.09
2024-01-22T06:28:16.139Z,97161.53
2024-01-22T06:30:44.826Z,97176.53
2024-01-22T06:33:13.309Z,97186.22
2024-01-22T06:35:41.913Z,97171.69
2024-01-22T06:38:10.831Z,97184.06
2024-01-22T06:40:39.124Z,97182.53
2024-01-22T06:43:08.679Z,97170.25
2024-01-22T06:45:38.717Z,97168.16
2024-01-22T06:48:09.802Z,97162.09
2024-01-22T06:50:38.638Z,97153.28
2024-01-22T06:53:06.955Z,97151.25
2024-01-22T06:55:35.263Z,97138.47
2024-01-22T06:58:03.844Z,97142.03
2024-01-22T07:00:34.378Z,97142.09
2024-01-22T07:03:04.518Z,97139.41
2024-01-22T07:05:34.608Z,97139.28
2024-01-22T07:08:02.929Z,97140.75
2024-01-22T07:10:31.691Z,97150.34
2024-01-22T07:12:59.977Z,97157.59
2024-01-22T07:15:28.234Z,97152.41
2024-01-22T07:17:56.604Z,97162.81
2024-01-22T07:20:26.377Z,97154.69
2024-01-22T07:22:55.200Z,97156.03
2024-01-22T07:25:23.563Z,97152.59
2024-01-22T07:27:51.809Z,97153.78
2024-01-22T07:30:20.246Z,97155.38
2024-01-22T07:32:49.410Z,97146.03
2024-01-22T07:35:18.361Z,97144.03
2024-01-22T07:37:48.681Z,97143.59
2024-01-22T07:40:17.285Z,97144.03
2024-01-22T07:42:46.325Z,97133.69
2024-01-22T07:45:15.738Z,97151.56
2024-01-22T07:47:45.030Z,97162.00
2024-01-22T07:50:15.642Z,97156.53
2024-01-22T07:52:47.136Z,97160.16
2024-01-22T07:55:20.161Z,97162.97
2024-01-22T07:57:48.436Z,97177.00
2024-01-22T08:00:17.632Z,97170.72
2024-01-22T08:02:46.281Z,97157.53
2024-01-22T08:05:15.673Z,97173.00
2024-01-22T08:07:45.357Z,97155.47
2024-01-22T08:10:14.984Z,97160.75
2024-01-22T08:12:44.842Z,97162.44
2024-01-22T08:15:17.140Z,97185.19
2024-01-22T08:17:48.073Z,97181.84
2024-01-22T08:20:18.308Z,97187.59
2024-01-22T08:22:48.137Z,97175.94
2024-01-22T08:25:20.846Z,97168.19
2024-01-22T08:27:50.812Z,97163.63
2024-01-22T08:30:19.564Z,97170.63
2024-01-22T08:32:48.115Z,97156.88
2024-01-22T08:35:18.336Z,97160.97
2024-01-22T08:37:49.333Z,97153.03
2024-01-22T08:40:18.992Z,97153.59
2024-01-22T08:42:47.555Z,97165.25
2024-01-22T08:45:17.485Z,97152.94
2024-01-22T08:47:47.280Z,97152.59
2024-01-22T08:50:19.183Z,97143.38
2024-01-22T08:52:48.459Z,97165.41
2024-01-22T08:55:17.315Z,97174.69
2024-01-22T08:57:45.596Z,97182.13
2024-01-22T09:00:15.899Z,97180.53
2024-01-22T09:02:45.996Z,97167.56
2024-01-22T09:05:15.857Z,97169.56
2024-01-22T09:07:44.246Z,97172.56
2024-01-22T09:10:13.045Z,97159.78
2024-01-22T09:12:41.720Z,97149.19
2024-01-22T09:15:11.544Z,97154.34
2024-01-22T09:17:40.090Z,97158.50
2024-01-22T09:20:11.536Z,97151.91
2024-01-22T09:22:39.868Z,97159.91
2024-01-22T09:25:08.694Z,97157.34
2024-01-22T09:27:37.042Z,97154.16
2024-01-22T09:30:07.867Z,97141.97
2024-01-22T09:32:37.324Z,97140.34
2024-01-22T09:35:06.904Z,97140.91
2024-01-22T09:37:36.592Z,97137.88
2024-01-22T09:40:10.500Z,97134.88
2024-01-22T09:42:42.519Z,97142.03
2024-01-22T09:45:12.330Z,97134.31
2024-01-22T09:47:40.779Z,97136.94
2024-01-22T09:50:10.267Z,97123.56
2024-01-22T09:52:45.692Z,97113.16
2024-01-22T09:55:16.450Z,97095.91
2024-01-22T09:57:46.451Z,97098.94
2024-01-22T10:00:17.479Z,97098.47
2024-01-22T10:02:45.948Z,97094.00
2024-01-22T10:05:15.262Z,97090.63
2024-01-22T10:07:45.165Z,97081.28
2024-01-22T10:10:15.342Z,97066.88
2024-01-22T10:13:05.645Z,97068.47
2024-01-22T10:15:35.085Z,97067.72
2024-01-22T10:18:14.399Z,97058.66
2024-01-22T10:20:44.702Z,97052.69
2024-01-22T10:23:17.811Z,97037.97
2024-01-22T10:25:46.552Z,97034.16
2024-01-22T10:28:18.818Z,97041.34
2024-01-22T10:30:48.672Z,97028.94
2024-01-22T10:33:18.667Z,97012.66
2024-01-22T10:35:49.546Z,97000.44
2024-01-22T10:38:21.274Z,96994.28
2024-01-22T10:40:50.483Z,96993.91
2024-01-22T10:43:25.773Z,96996.28
2024-01-22T10:45:55.707Z,97000.47
2024-01-22T10:48:37.023Z,96984.22
2024-01-22T10:51:09.892Z,96978.94
2024-01-22T10:53:40.819Z,96974.19
2024-01-22T10:56:17.438Z,96955.53
2024-01-22T10:58:48.961Z,96952.94
2024-01-22T11:01:21.512Z,96951.16
2024-01-22T11:03:53.191Z,96939.41
2024-01-22T11:06:24.531Z,96948.44
2024-01-22T11:08:56.943Z,96949.56
2024-01-22T11:11:27.446Z,96950.41
2024-01-22T11:13:58.346Z,96925.63
2024-01-22T11:16:27.647Z,96920.91
2024-01-22T11:18:58.039Z,96923.63
2024-01-22T11:21:27.172Z,96897.34
2024-01-22T11:24:15.545Z,96897.91
2024-01-22T11:26:46.458Z,96887.28
2024-01-22T11:29:17.856Z,96889.09
2024-01-22T11:31:48.149Z,96869.03
2024-01-22T11:34:47.340Z,96875.25
2024-01-22T11:37:36.076Z,96878.50
2024-01-22T11:40:09.154Z,96867.59
2024-01-22T11:42:38.194Z,96857.31
2024-01-22T11:45:12.965Z,96843.84
2024-01-22T11:47:42.507Z,96835.41
2024-01-22T11:50:12.354Z,96825.31
2024-01-22T11:52:41.208Z,96825.81
2024-01-22T11:55:11.333Z,96807.00
2024-01-22T11:57:41.276Z,96801.44
2024-01-22T12:00:16.108Z,96792.53
2024-01-22T12:02:47.617Z,96778.75
2024-01-22T12:05:19.688Z,96766.44
2024-01-22T12:07:50.428Z,96764.91
2024-01-22T12:10:25.037Z,96766.03
2024-01-22T12:12:58.195Z,96762.81
2024-01-22T12:15:27.974Z,96756.88
2024-01-22T12:17:57.407Z,96753.38
2024-01-22T12:20:26.994Z,96748.41
2024-01-22T12:22:59.765Z,96740.66
2024-01-22T12:25:37.784Z,96724.59
2024-01-22T12:28:09.959Z,96718.44
2024-01-22T12:30:39.609Z,96706.81
2024-01-22T12:33:21.058Z,96690.19
2024-01-22T12:35:49.455Z,96686.63
2024-01-22T12:38:18.319Z,96662.59
2024-01-22T12:40:48.174Z,96655.94
2024-01-22T12:43:17.856Z,96646.50
2024-01-22T12:45:46.300Z,96649.06
2024-01-22T12:48:15.088Z,96653.94
2024-01-22T12:50:44.661Z,96653.56
2024-01-22T12:53:13.019Z,96625.59
2024-01-22T12:55:41.412Z,96615.44
2024-01-22T12:58:13.357Z,96626.97
2024-01-22T13:00:41.625Z,96629.16
2024-01-22T13:03:10.769Z,96625.00
2024-01-22T13:05:40.254Z,96620.78
2024-01-22T13:08:11.368Z,96619.75
2024-01-22T13:10:39.623Z,96610.88
2024-01-22T13:13:08.509Z,96601.38
2024-01-22T13:15:50.735Z,96586.13
2024-01-22T13:18:26.573Z,96582.53
2024-01-22T13:20:54.994Z,96576.28
2024-01-22T13:23:23.373Z,96586.56
2024-01-22T13:25:53.851Z,96586.34
2024-01-22T13:28:22.134Z,96572.72
2024-01-22T13:30:51.870Z,96567.94
2024-01-22T13:33:20.231Z,96562.88
2024-01-22T13:35:49.587Z,96569.34
2024-01-22T13:38:18.369Z,96567.94
2024-01-22T13:40:46.729Z,96568.66
2024-01-22T13:43:15.064Z,96568.34
2024-01-22T13:45:43.672Z,96558.13
2024-01-22T13:48:13.836Z,96539.56
2024-01-22T13:50:44.627Z,96530.44
2024-01-22T13:53:13.451Z,96520.22
2024-01-22T13:55:41.671Z,96509.44
2024-01-22T13:58:10.022Z,96519.13
2024-01-22T14:00:39.202Z,96526.94
2024-01-22T14:03:08.047Z,96561.72
2024-01-22T14:05:37.955Z,96569.94
2024-01-22T14:08:07.129Z,96586.09
2024-01-22T14:10:35.644Z,96616.09
2024-01-22T14:13:04.057Z,96632.81
2024-01-22T14:15:33.231Z,96650.78
2024-01-22T14:18:02.119Z,96667.63
2024-01-22T14:20:30.521Z,96673.16
2024-01-22T14:23:07.340Z,96677.16
2024-01-22T14:25:36.993Z,96675.03
2024-01-22T14:28:05.593Z,96694.31
2024-01-22T14:30:34.015Z,96696.41
2024-01-22T14:33:02.828Z,96697.94
2024-01-22T14:35:31.649Z,96709.97
2024-01-22T14:38:01.585Z,96700.03
2024-01-22T14:40:30.025Z,96710.13
2024-01-22T14:42:58.566Z,96698.91
2024-01-22T14:45:26.941Z,96699.72
2024-01-22T14:47:57.134Z,96714.91
2024-01-22T14:50:27.010Z,96696.88
2024-01-22T14:52:55.320Z,96679.63
2024-01-22T14:55:25.464Z,96676.47
2024-01-22T14:57:53.686Z,96655.81
2024-01-22T15:00:22.497Z,96655.13
2024-01-22T15:02:52.296Z,96653.69
2024-01-22T15:05:20.769Z,96641.50
2024-01-22T15:07:49.745Z,96632.97
2024-01-22T15:10:18.496Z,96632.50
2024-01-22T15:12:48.922Z,96639.63
2024-01-22T15:15:17.205Z,96636.41
2024-01-22T15:17:45.662Z,96614.66
2024-01-22T15:20:15.196Z,96613.06
2024-01-22T15:22:43.665Z,96611.81
2024-01-22T15:25:13.539Z,96623.19
2024-01-22T15:27:41.823Z,96659.88
2024-01-22T15:30:12.696Z,96668.88
2024-01-22T15:32:41.149Z,96688.41
2024-01-22T15:35:11.303Z,96737.16
2024-01-22T15:37:41.717Z,96721.78
2024-01-22T15:40:11.886Z,96700.25
2024-01-22T15:42:40.410Z,96717.81
2024-01-22T15:45:10.453Z,96707.75
2024-01-22T15:47:41.172Z,96676.38
2024-01-22T15:50:10.282Z,96677.28
2024-01-22T15:52:38.578Z,96684.97
2024-01-22T15:55:07.021Z,96687.69
2024-01-22T15:57:35.266Z,96732.84
2024-01-22T16:00:03.868Z,96764.75
2024-01-22T16:02:32.226Z,96764.75
2024-01-22T16:05:02.154Z,96739.06
2024-01-22T16:07:30.719Z,96723.56
2024-01-22T16:09:59.149Z,96733.84
2024-01-22T16:12:27.744Z,96752.50
2024-01-22T16:14:56.224Z,96771.75
2024-01-22T16:17:25.116Z,96782.16
2024-01-22T16:19:53.577Z,96826.38
2024-01-22T16:22:23.358Z,96847.47
2024-01-22T16:24:51.739Z,96837.09
2024-01-22T16:27:20.622Z,96808.94
2024-01-22T16:29:51.927Z,96818.13
2024-01-22T16:32:20.852Z,96815.84
2024-01-22T16:34:49.457Z,96820.28
2024-01-22T16:37:19.551Z,96840.53
2024-01-22T16:39:51.014Z,96836.78
2024-01-22T16:42:19.225Z,96840.63
2024-01-22T16:44:47.577Z,96839.38
2024-01-22T16:47:16.126Z,96823.19
2024-01-22T16:49:45.124Z,96827.13
2024-01-22T16:52:13.566Z,96810.47
2024-01-22T16:54:41.736Z,96822.19
2024-01-22T16:57:11.444Z,96820.25
2024-01-22T16:59:39.645Z,96822.66
2024-01-22T17:02:08.210Z,96808.03
2024-01-22T17:04:36.539Z,96805.09
2024-01-22T17:07:06.327Z,96809.50
2024-01-22T17:09:34.730Z,96801.56
2024-01-22T17:12:04.312Z,96796.13
2024-01-22T17:14:34.516Z,96803.06
2024-01-22T17:17:05.543Z,96812.47
2024-01-22T17:19:34.152Z,96824.63
2024-01-22T17:22:02.446Z,96832.84
2024-01-22T17:24:30.807Z,96855.81
2024-01-22T17:26:59.190Z,96859.34
2024-01-22T17:29:27.578Z,96870.06
2024-01-22T17:31:58.010Z,96869.09
2024-01-22T17:34:26.661Z,96844.84
2024-01-22T17:36:55.008Z,96820.19
2024-01-22T17:39:23.732Z,96810.44
2024-01-22T17:41:52.508Z,96828.44
2024-01-22T17:44:20.851Z,96845.53
2024-01-22T17:46:49.169Z,96856.09
2024-01-22T17:49:18.907Z,96868.91
2024-01-22T17:51:47.368Z,96863.25
2024-01-22T17:54:15.689Z,96880.69
2024-01-22T17:56:44.044Z,96891.00
2024-01-22T17:59:14.284Z,96901.66
2024-01-22T18:01:42.526Z,96923.47
2024-01-22T18:04:10.869Z,96926.28
2024-01-22T18:06:40.820Z,96930.72
2024-01-22T18:09:09.168Z,96917.13
2024-01-22T18:11:37.504Z,96911.31
2024-01-22T18:14:06.219Z,96906.69
2024-01-22T18:16:34.691Z,96917.94
2024-01-22T18:19:03.219Z,96932.19
2024-01-22T18:21:31.509Z,96917.66
2024-01-22T18:24:06.580Z,96920.97
2024-01-22T18:26:35.264Z,96915.09
2024-01-22T18:29:03.656Z,96915.72
2024-01-22T18:31:31.884Z,96923.69
2024-01-22T18:34:00.431Z,96927.03
2024-01-22T18:36:28.781Z,96916.63
2024-01-22T18:38:57.084Z,96916.63
2024-01-22T18:41:28.909Z,96924.41
2024-01-22T18:43:57.918Z,96928.53
2024-01-22T18:46:26.444Z,96937.28
2024-01-22T18:48:54.901Z,96937.72
2024-01-22T18:51:23.425Z,96932.94
2024-01-22T18:53:51.876Z,96923.34
2024-01-22T18:56:20.048Z,96921.69
2024-01-22T18:58:49.776Z,96948.44
2024-01-22T19:01:18.878Z,96965.56
2024-01-22T19:03:47.530Z,96964.34
2024-01-22T19:06:15.935Z,96956.81
2024-01-22T19:08:44.849Z,96953.97
2024-01-22T19:11:13.089Z,96948.19
2024-01-22T19:13:42.177Z,96955.41
2024-01-22T19:16:13.798Z,96945.53
2024-01-22T19:18:43.064Z,96945.25
2024-01-22T19:21:16.933Z,96973.16
2024-01-22T19:23:45.841Z,96969.09
2024-01-22T19:26:14.571Z,96982.13
2024-01-22T19:28:42.885Z,96981.16
2024-01-22T19:31:12.625Z,97000.53
2024-01-22T19:33:41.655Z,97014.50
2024-01-22T19:36:10.326Z,97009.88
2024-01-22T19:38:39.116Z,96992.81
2024-01-22T19:41:07.749Z,96964.19
2024-01-22T19:43:36.028Z,96977.25
2024-01-22T19:46:04.403Z,96990.34
2024-01-22T19:48:36.423Z,96994.69
2024-01-22T19:51:05.048Z,96965.91
2024-01-22T19:53:34.407Z,96958.41
2024-01-22T19:56:02.709Z,96962.00
2024-01-22T19:58:31.066Z,96945.97
2024-01-22T20:00:59.409Z,96962.00
2024-01-22T20:03:27.741Z,96973.22
2024-01-22T20:05:57.610Z,96978.19
2024-01-22T20:08:25.976Z,96964.31
2024-01-22T20:10:54.302Z,96964.91
2024-01-22T20:13:22.677Z,96963.44
2024-01-22T20:15:51.004Z,96991.16
2024-01-22T20:18:19.440Z,96983.56
2024-01-22T20:20:47.788Z,97003.66
2024-01-22T20:23:17.654Z,97019.41
2024-01-22T20:25:45.934Z,97023.47
2024-01-22T20:28:15.321Z,97030.25
2024-01-22T20:30:43.585Z,97018.69
2024-01-22T20:33:11.886Z,97012.75
2024-01-22T20:35:41.841Z,97018.59
2024-01-22T20:38:11.090Z,97039.03
2024-01-22T20:40:42.898Z,97053.56
2024-01-22T20:43:11.635Z,97061.53
2024-01-22T20:45:39.985Z,97068.13
2024-01-22T20:48:09.333Z,97047.81
2024-01-22T20:50:37.641Z,97026.69
2024-01-22T20:53:06.043Z,97031.25
2024-01-22T20:55:34.473Z,97034.59
2024-01-22T20:58:04.282Z,97040.53
2024-01-22T21:00:32.621Z,97050.88
2024-01-22T21:03:02.351Z,97053.97
2024-01-22T21:05:30.865Z,97049.25
2024-01-22T21:07:59.313Z,97056.28
2024-01-22T21:10:27.738Z,97070.88
2024-01-22T21:12:56.693Z,97069.28
2024-01-22T21:15:26.833Z,97067.25
2024-01-22T21:17:55.393Z,97067.41
2024-01-22T21:20:24.693Z,97067.63
2024-01-22T21:22:53.642Z,97069.44
2024-01-22T21:25:22.163Z,97069.28
2024-01-22T21:27:50.525Z,97080.50
2024-01-22T21:30:19.826Z,97081.97
2024-01-22T21:32:50.060Z,97093.44
2024-01-22T21:35:18.517Z,97102.97
2024-01-22T21:37:47.889Z,97091.38
2024-01-22T21:40:16.376Z,97077.31
2024-01-22T21:42:47.792Z,97079.28
2024-01-22T21:45:17.585Z,97083.25
2024-01-22T21:47:46.422Z,97078.25
2024-01-22T21:50:17.141Z,97079.63
2024-01-22T21:52:45.466Z,97057.88
2024-01-22T21:55:13.853Z,97077.25
2024-01-22T21:57:43.012Z,97042.97
2024-01-22T22:00:13.060Z,97045.56
2024-01-22T22:02:42.015Z,97026.22
2024-01-22T22:05:11.045Z,97037.41
2024-01-22T22:07:40.881Z,97048.63
2024-01-22T22:10:10.098Z,97057.28
2024-01-22T22:12:39.290Z,97047.50
2024-01-22T22:15:09.782Z,97038.75
2024-01-22T22:17:40.037Z,97050.38
2024-01-22T22:20:10.728Z,97042.31
2024-01-22T22:22:40.928Z,97047.03
2024-01-22T22:25:10.252Z,97044.34
2024-01-22T22:27:38.663Z,97043.25
2024-01-22T22:30:08.656Z,97044.56
2024-01-22T22:32:37.024Z,97033.88
2024-01-22T22:35:05.766Z,97028.97
2024-01-22T22:37:34.000Z,97033.66
2024-01-22T22:40:03.657Z,97041.97
2024-01-22T22:42:31.946Z,97034.66
2024-01-22T22:45:00.310Z,97041.09
2024-01-22T22:47:28.681Z,97021.22
2024-01-22T22:49:56.958Z,97026.56
2024-01-22T22:52:25.339Z,97035.03
2024-01-22T22:54:53.732Z,97041.75
2024-01-22T22:57:23.570Z,97044.00
2024-01-22T22:59:51.833Z,97042.25
2024-01-22T23:02:20.061Z,97055.78
2024-01-22T23:04:48.379Z,97059.69
2024-01-22T23:07:17.244Z,97066.38
2024-01-22T23:09:45.448Z,97049.84
2024-01-22T23:12:14.169Z,97023.00
2024-01-22T23:14:43.966Z,97040.00
2024-01-22T23:17:12.165Z,97070.44
2024-01-22T23:19:40.483Z,97067.66
2024-01-22T23:22:08.770Z,97060.03
2024-01-22T23:24:37.176Z,97064.34
2024-01-22T23:27:05.904Z,97081.31
2024-01-22T23:29:34.129Z,97081.84
2024-01-22T23:32:04.077Z,97091.47
2024-01-22T23:34:32.359Z,97082.28
2024-01-22T23:37:00.725Z,97094.66
2024-01-22T23:39:29.198Z,97096.59
2024-01-22T23:41:57.732Z,97087.28
2024-01-22T23:44:25.984Z,97090.50
2024-01-22T23:46:54.740Z,97108.16
2024-01-22T23:49:24.652Z,97113.16
2024-01-22T23:51:52.806Z,97107.00
2024-01-22T23:54:21.339Z,97099.13
2024-01-22T23:56:49.619Z,97114.63
2024-01-22T23:59:17.944Z,97114.88
